createdAt,value
2022-08-30T10:15:41.808Z,27.70
2022-08-30T10:16:41.797Z,27.60
2022-08-30T10:17:41.774Z,27.67
2022-08-30T10:18:41.766Z,27.70
2022-08-30T10:19:41.751Z,27.75
2022-08-30T10:20:41.744Z,27.77
2022-08-30T10:21:41.716Z,27.75
2022-08-30T10:22:41.786Z,27.96
2022-08-30T10:23:41.691Z,28.07
2022-08-30T10:24:41.700Z,28.27
2022-08-30T10:25:41.665Z,28.49
2022-08-30T10:26:41.663Z,28.66
2022-08-30T10:27:41.642Z,28.88
2022-08-30T10:28:41.633Z,28.93
2022-08-30T10:30:41.606Z,28.46
2022-08-30T10:31:41.608Z,28.52
2022-08-30T10:32:41.595Z,28.30
2022-08-30T10:33:41.575Z,28.25
2022-08-30T10:34:41.583Z,28.33
2022-08-30T10:35:41.547Z,28.41
2022-08-30T10:36:41.547Z,28.46
2022-08-30T10:37:41.520Z,28.55
2022-08-30T10:38:41.516Z,28.67
2022-08-30T10:39:41.502Z,28.52
2022-08-30T10:40:41.552Z,28.46
2022-08-30T10:41:41.487Z,28.52
2022-08-30T10:42:41.482Z,28.56
2022-08-30T10:43:41.456Z,28.70
2022-08-30T10:44:41.463Z,28.70
2022-08-30T10:45:41.455Z,28.61
2022-08-30T10:46:41.425Z,28.66
2022-08-30T10:47:41.421Z,28.52
2022-08-30T10:48:41.418Z,28.36
2022-08-30T10:49:41.392Z,28.25
2022-08-30T10:50:41.520Z,28.31
2022-08-30T10:51:41.375Z,28.29
2022-08-30T10:52:41.357Z,28.11
2022-08-30T10:53:41.341Z,28.18
2022-08-30T10:54:41.343Z,28.40
2022-08-30T10:55:41.343Z,28.58
2022-08-30T10:56:41.316Z,28.93
2022-08-30T10:57:43.022Z,29.24
2022-08-30T10:58:41.288Z,29.31
2022-08-30T10:59:41.300Z,29.18
2022-08-30T11:00:41.378Z,29.31
2022-08-30T11:01:46.287Z,29.21
2022-08-30T11:02:41.262Z,29.27
2022-08-30T11:03:41.240Z,29.52
2022-08-30T11:04:45.414Z,29.70
2022-08-30T11:05:42.071Z,29.61
2022-08-30T11:06:41.211Z,29.60
2022-08-30T11:07:41.195Z,29.68
2022-08-30T11:08:41.194Z,29.74
2022-08-30T11:09:41.178Z,29.78
2022-08-30T11:10:41.183Z,29.68
2022-08-30T11:11:41.150Z,29.82
2022-08-30T11:12:41.598Z,30.05
2022-08-30T11:13:41.132Z,30.08
2022-08-30T11:14:41.118Z,30.02
2022-08-30T11:15:41.119Z,30.23
2022-08-30T11:16:41.097Z,30.47
2022-08-30T11:17:41.087Z,30.60
2022-08-30T11:18:41.082Z,30.72
2022-08-30T11:19:41.074Z,30.94
2022-08-30T11:20:41.071Z,31.01
2022-08-30T11:21:41.054Z,30.43
2022-08-30T11:22:41.037Z,29.90
2022-08-30T11:23:41.048Z,29.71
2022-08-30T11:24:41.022Z,29.92
2022-08-30T11:25:41.014Z,29.76
2022-08-30T11:26:40.997Z,30.11
2022-08-30T11:27:40.993Z,30.35
2022-08-30T11:28:40.989Z,30.55
2022-08-30T11:29:40.980Z,30.43
2022-08-30T11:30:40.980Z,29.98
2022-08-30T11:31:40.958Z,30.00
2022-08-30T11:32:40.947Z,30.17
2022-08-30T11:33:40.927Z,30.37
2022-08-30T11:34:40.925Z,30.45
2022-08-30T11:35:47.369Z,30.46
2022-08-30T11:36:45.918Z,30.02
2022-08-30T11:37:40.893Z,30.05
2022-08-30T11:38:40.881Z,29.70
2022-08-30T11:39:40.867Z,29.64
2022-08-30T11:40:40.884Z,29.70
2022-08-30T11:43:40.837Z,31.61
2022-08-30T11:44:40.818Z,32.30
2022-08-30T11:45:40.848Z,32.78
2022-08-30T11:46:40.798Z,33.22
2022-08-30T11:47:40.797Z,33.57
2022-08-30T11:48:40.778Z,33.82
2022-08-30T11:49:40.782Z,33.94
2022-08-30T11:50:41.988Z,33.21
2022-08-30T11:51:40.755Z,32.55
2022-08-30T11:52:40.751Z,32.33
2022-08-30T11:53:40.738Z,31.72
2022-08-30T11:54:40.729Z,32.11
2022-08-30T11:55:40.726Z,32.38
2022-08-30T11:56:40.716Z,32.87
2022-08-30T11:57:40.700Z,32.66
2022-08-30T11:58:43.917Z,32.70
2022-08-30T11:59:40.679Z,31.62
2022-08-30T12:00:40.706Z,31.16
2022-08-30T12:01:51.312Z,30.53
2022-08-30T12:02:40.753Z,30.67
2022-08-30T12:03:40.702Z,31.20
2022-08-30T12:04:40.634Z,31.91
2022-08-30T12:05:40.638Z,32.45
2022-08-30T12:06:40.607Z,33.16
2022-08-30T12:07:40.606Z,33.39
2022-08-30T12:08:40.584Z,33.87
2022-08-30T12:09:40.578Z,34.12
2022-08-30T12:10:40.593Z,33.84
2022-08-30T12:11:40.563Z,34.17
2022-08-30T12:12:40.548Z,33.94
2022-08-30T12:13:40.547Z,34.22
2022-08-30T12:14:40.936Z,34.43
2022-08-30T12:15:40.527Z,33.86
2022-08-30T12:16:40.714Z,33.18
2022-08-30T12:17:40.500Z,32.60
2022-08-30T12:18:40.732Z,32.62
2022-08-30T12:19:41.401Z,32.59
2022-08-30T12:20:40.502Z,32.48
2022-08-30T12:21:44.798Z,32.67
2022-08-30T12:22:40.459Z,32.08
2022-08-30T12:23:44.275Z,31.72
2022-08-30T12:24:40.451Z,30.84
2022-08-30T12:25:40.454Z,30.42
2022-08-30T12:26:41.271Z,30.37
2022-08-30T12:27:40.410Z,30.35
2022-08-30T12:28:42.065Z,30.19
2022-08-30T12:29:40.401Z,30.23
2022-08-30T12:30:40.442Z,30.46
2022-08-30T12:31:40.412Z,30.47
2022-08-30T12:32:40.377Z,30.46
2022-08-30T12:33:41.444Z,30.53
2022-08-30T12:34:40.357Z,30.39
2022-08-30T12:35:40.369Z,30.02
2022-08-30T12:36:40.341Z,29.90
2022-08-30T12:37:42.237Z,29.71
2022-08-30T12:38:40.324Z,29.82
2022-08-30T12:39:40.298Z,30.34
2022-08-30T12:40:40.383Z,31.19
2022-08-30T12:41:43.710Z,31.46
2022-08-30T12:42:40.271Z,31.44
2022-08-30T12:43:41.419Z,31.47
2022-08-30T12:44:40.255Z,31.04
2022-08-30T12:45:40.287Z,31.20
2022-08-30T12:46:40.244Z,31.80
2022-08-30T12:47:40.231Z,31.46
2022-08-30T12:48:40.224Z,31.88
2022-08-30T12:49:40.207Z,32.23
2022-08-30T12:50:40.219Z,32.57
2022-08-30T12:51:41.101Z,32.70
2022-08-30T12:52:40.187Z,32.82
2022-08-30T12:53:40.176Z,33.23
2022-08-30T12:54:40.161Z,33.00
2022-08-30T12:55:40.198Z,32.74
2022-08-30T12:56:49.555Z,33.19
2022-08-30T12:57:40.137Z,33.16
2022-08-30T12:58:40.125Z,33.22
2022-08-30T12:59:40.122Z,32.82
2022-08-30T13:00:40.218Z,31.96
2022-08-30T13:01:40.706Z,31.47
2022-08-30T13:02:40.093Z,31.06
2022-08-30T13:03:40.080Z,30.38
2022-08-30T13:04:40.091Z,30.38
2022-08-30T13:05:44.572Z,30.29
2022-08-30T13:06:40.065Z,31.14
2022-08-30T13:07:40.050Z,31.92
2022-08-30T13:08:40.047Z,32.69
2022-08-30T13:09:40.026Z,33.37
2022-08-30T13:10:40.022Z,33.97
2022-08-30T13:11:40.016Z,33.65
2022-08-30T13:12:40.008Z,33.59
2022-08-30T13:13:39.996Z,33.34
2022-08-30T13:14:42.467Z,33.71
2022-08-30T13:15:39.973Z,33.88
2022-08-30T13:16:45.063Z,33.79
2022-08-30T13:17:39.975Z,34.13
2022-08-30T13:18:39.960Z,34.00
2022-08-30T13:19:39.949Z,34.09
2022-08-30T13:20:39.934Z,33.75
2022-08-30T13:21:39.933Z,34.22
2022-08-30T13:22:39.939Z,34.82
2022-08-30T13:23:39.911Z,34.88
2022-08-30T13:24:39.920Z,34.31
2022-08-30T13:25:39.902Z,33.79
2022-08-30T13:26:40.032Z,33.07
2022-08-30T13:27:39.968Z,32.43
2022-08-30T13:28:39.879Z,31.99
2022-08-30T13:29:39.871Z,32.92
2022-08-30T13:30:39.863Z,33.47
2022-08-30T13:31:39.919Z,33.06
2022-08-30T13:32:39.862Z,32.75
2022-08-30T13:33:39.837Z,31.91
2022-08-30T13:34:39.842Z,32.19
2022-08-30T13:35:39.834Z,31.80
2022-08-30T13:36:39.833Z,31.01
2022-08-30T13:37:50.355Z,30.64
2022-08-30T13:38:39.823Z,30.34
2022-08-30T13:39:39.795Z,30.67
2022-08-30T13:40:39.832Z,31.19
2022-08-30T13:41:39.787Z,32.00
2022-08-30T13:42:39.785Z,32.78
2022-08-30T13:44:39.761Z,34.12
2022-08-30T13:45:41.642Z,33.87
2022-08-30T13:46:39.895Z,33.82
2022-08-30T13:47:39.805Z,33.68
2022-08-30T13:48:39.755Z,33.54
2022-08-30T13:49:43.459Z,34.06
2022-08-30T13:50:39.730Z,34.50
2022-08-30T13:51:39.719Z,34.30
2022-08-30T13:52:39.713Z,34.40
2022-08-30T13:53:55.411Z,34.46
2022-08-30T13:54:39.687Z,34.62
2022-08-30T13:55:39.681Z,35.15
2022-08-30T13:56:39.681Z,35.72
2022-08-30T13:57:55.959Z,36.13
2022-08-30T13:58:39.686Z,36.19
2022-08-30T13:59:39.665Z,35.66
2022-08-30T14:00:39.734Z,35.68
2022-08-30T14:02:46.350Z,35.29
2022-08-30T14:04:13.252Z,35.14
2022-08-30T14:04:39.681Z,34.64
2022-08-30T14:05:49.449Z,34.91
2022-08-30T14:07:11.926Z,35.63
2022-08-30T14:07:39.621Z,35.72
2022-08-30T14:08:48.136Z,35.89
2022-08-30T14:09:39.610Z,35.56
2022-08-30T14:10:47.006Z,36.17
2022-08-30T14:11:39.597Z,36.01
2022-08-30T14:13:00.622Z,35.37
2022-08-30T14:14:14.631Z,34.65
2022-08-30T14:14:43.009Z,34.46
2022-08-30T14:15:39.576Z,34.19
2022-08-30T14:16:39.603Z,34.58
2022-08-30T14:17:39.576Z,34.77
2022-08-30T14:18:39.581Z,34.70
2022-08-30T14:19:39.557Z,34.47
2022-08-30T14:20:39.722Z,34.61
2022-08-30T14:21:39.557Z,34.46
2022-08-30T14:22:39.541Z,33.66
2022-08-30T14:23:39.563Z,33.63
2022-08-30T14:24:39.536Z,33.79
2022-08-30T14:25:40.798Z,34.16
2022-08-30T14:26:39.649Z,33.81
2022-08-30T14:27:39.526Z,33.84
2022-08-30T14:28:39.532Z,33.98
2022-08-30T14:29:39.520Z,34.78
2022-08-30T14:30:39.516Z,35.10
2022-08-30T14:31:39.590Z,34.96
2022-08-30T14:32:39.507Z,34.27
2022-08-30T14:33:39.516Z,33.47
2022-08-30T14:34:39.490Z,33.09
2022-08-30T14:35:39.486Z,33.06
2022-08-30T14:36:39.508Z,32.84
2022-08-30T14:37:39.491Z,31.78
2022-08-30T14:38:39.494Z,31.51
2022-08-30T14:39:39.490Z,31.47
2022-08-30T14:40:39.513Z,31.48
2022-08-30T14:41:43.170Z,32.10
2022-08-30T14:42:39.448Z,32.78
2022-08-30T14:43:39.464Z,33.81
2022-08-30T14:44:55.124Z,34.53
2022-08-30T14:45:39.438Z,35.18
2022-08-30T14:46:39.505Z,33.91
2022-08-30T14:47:39.430Z,33.95
2022-08-30T14:48:39.427Z,33.38
2022-08-30T14:49:39.414Z,32.66
2022-08-30T14:50:39.456Z,32.44
2022-08-30T14:51:39.430Z,32.30
2022-08-30T14:52:39.395Z,32.93
2022-08-30T14:53:39.404Z,33.35
2022-08-30T14:54:39.394Z,33.45
2022-08-30T14:55:39.384Z,33.53
2022-08-30T14:56:39.383Z,33.11
2022-08-30T14:57:39.371Z,32.92
2022-08-30T14:58:39.382Z,32.63
2022-08-30T14:59:39.368Z,32.94
2022-08-30T15:00:39.417Z,33.18
2022-08-30T15:01:39.344Z,32.81
2022-08-30T15:02:39.347Z,32.22
2022-08-30T15:03:39.423Z,32.33
2022-08-30T15:04:39.337Z,32.47
2022-08-30T15:05:39.332Z,33.07
2022-08-30T15:06:39.329Z,32.40
2022-08-30T15:07:39.324Z,32.28
2022-08-30T15:08:39.482Z,31.92
2022-08-30T15:09:39.304Z,31.86
2022-08-30T15:10:39.296Z,31.89
2022-08-30T15:11:39.302Z,31.96
2022-08-30T15:12:39.299Z,32.56
2022-08-30T15:13:39.305Z,32.11
2022-08-30T15:14:39.277Z,32.60
2022-08-30T15:15:39.268Z,33.12
2022-08-30T15:16:39.320Z,33.34
2022-08-30T15:17:39.275Z,34.21
2022-08-30T15:18:39.267Z,34.53
2022-08-30T15:19:39.264Z,33.73
2022-08-30T15:20:39.258Z,33.49
2022-08-30T15:21:39.250Z,33.07
2022-08-30T15:22:39.239Z,32.48
2022-08-30T15:23:39.449Z,32.30
2022-08-30T15:24:39.238Z,32.22
2022-08-30T15:25:39.545Z,32.00
2022-08-30T15:26:39.228Z,31.76
2022-08-30T15:27:39.225Z,31.81
2022-08-30T15:28:39.220Z,31.84
2022-08-30T15:29:39.199Z,32.03
2022-08-30T15:30:39.197Z,31.95
2022-08-30T15:31:39.239Z,31.81
2022-08-30T15:32:39.192Z,31.72
2022-08-30T15:33:39.202Z,31.68
2022-08-30T15:34:39.168Z,31.69
2022-08-30T15:36:01.632Z,31.34
2022-08-30T15:37:01.610Z,31.19
2022-08-30T15:40:54.411Z,30.67
2022-08-30T15:41:57.322Z,30.61
2022-08-30T15:42:54.381Z,30.45
2022-08-30T15:44:20.076Z,30.45
2022-08-30T15:45:20.050Z,30.58
2022-08-30T15:46:20.075Z,30.47
2022-08-30T15:47:20.029Z,30.62
2022-08-30T15:48:20.024Z,30.49
2022-08-30T15:49:20.020Z,30.69
2022-08-30T15:50:20.027Z,30.55
2022-08-30T15:51:20.000Z,30.54
2022-08-30T15:52:19.995Z,30.39
2022-08-30T15:53:19.988Z,30.32
2022-08-30T15:54:19.987Z,30.31
2022-08-30T15:55:19.984Z,30.64
2022-08-30T15:56:19.961Z,31.17
2022-08-30T15:57:19.952Z,31.63
2022-08-30T15:58:19.957Z,31.89
2022-08-30T15:59:19.930Z,32.29
2022-08-30T16:00:19.941Z,32.87
2022-08-30T16:01:19.980Z,32.84
2022-08-30T16:02:19.965Z,32.50
2022-08-30T16:03:19.993Z,32.26
2022-08-30T16:04:19.905Z,31.81
2022-08-30T16:05:19.891Z,31.16
2022-08-30T16:06:19.899Z,31.01
2022-08-30T16:07:19.886Z,30.95
2022-08-30T16:10:13.925Z,30.16
2022-08-30T16:11:13.926Z,30.27
2022-08-30T16:12:22.355Z,30.22
2022-08-30T16:13:13.940Z,30.32
2022-08-30T16:14:13.883Z,30.38
2022-08-30T16:15:13.884Z,30.46
2022-08-30T16:16:13.894Z,30.46
2022-08-30T16:17:13.870Z,30.82
2022-08-30T16:18:13.860Z,30.67
2022-08-30T16:19:13.879Z,30.79
2022-08-30T16:20:13.846Z,30.72
2022-08-30T16:21:13.836Z,30.69
2022-08-30T16:22:13.830Z,30.79
2022-08-30T16:23:13.822Z,30.95
2022-08-30T16:24:14.252Z,30.79
2022-08-30T16:25:13.813Z,31.10
2022-08-30T16:26:17.299Z,31.46
2022-08-30T16:27:13.784Z,31.54
2022-08-30T16:28:13.776Z,31.47
2022-08-30T16:29:13.793Z,31.70
2022-08-30T16:30:13.790Z,31.13
2022-08-30T16:31:13.782Z,30.80
2022-08-30T16:32:13.754Z,31.01
2022-08-30T16:33:13.740Z,30.88
2022-08-30T16:34:13.733Z,30.76
2022-08-30T16:35:13.751Z,30.47
2022-08-30T16:36:13.731Z,30.43
2022-08-30T16:37:13.712Z,30.04
2022-08-30T16:38:13.712Z,30.02
2022-08-30T16:39:13.706Z,30.02
2022-08-30T16:40:13.761Z,29.64
2022-08-30T16:41:16.553Z,29.64
